Time;durP1;ratioP1;P1;durP2;ratioP2;P2;SDS_P1;SDS_P2;PMS_P1;PMS_P2;Temp;Humidity;BMP_temperature;BMP_pressure;BME280_temperature;BME280_humidity;BME280_pressure;Samples;Min_cycle;Max_cycle;Signal;HPM_P1;HPM_P2
2022/09/16 00:00:44;;;;;;;;;;;19.50;86.60;;;;;;6308902;22;19933;-91
2022/09/16 00:03:10;;;;;;;;;;;19.50;87.00;;;;;;6308817;22;19963;-91
2022/09/16 00:05:41;;;;;;;;;;;19.50;87.10;;;;;;6309004;22;19939;-91
2022/09/16 00:08:06;;;;;;;;;;;19.50;87.20;;;;;;6308266;22;19958;-91
2022/09/16 00:10:32;;;;;;;;;;;19.40;87.60;;;;;;6308515;22;19963;-91
2022/09/16 00:12:57;;;;;;;;;;;19.30;87.90;;;;;;6309305;22;19970;-91
2022/09/16 00:15:23;;;;;;;;;;;19.40;87.70;;;;;;6308959;22;20422;-91
2022/09/16 00:17:49;;;;;;;;;;;19.40;87.50;;;;;;6309054;22;19935;-91
2022/09/16 00:20:14;;;;;;;;;;;19.40;87.50;;;;;;6308557;22;20007;-91
2022/09/16 00:22:40;;;;;;;;;;;19.50;87.40;;;;;;6308698;22;19935;-91
2022/09/16 00:25:05;;;;;;;;;;;19.50;87.30;;;;;;6308591;22;19940;-91
2022/09/16 00:27:31;;;;;;;;;;;19.50;86.90;;;;;;6308615;22;19985;-91
2022/09/16 00:29:56;;;;;;;;;;;19.40;86.20;;;;;;6308579;22;19935;-91
2022/09/16 00:32:23;;;;;;;;;;;19.10;86.00;;;;;;6308705;22;19938;-91
2022/09/16 00:34:49;;;;;;;;;;;18.90;86.30;;;;;;6308740;22;19932;-91
2022/09/16 00:37:15;;;;;;;;;;;18.90;88.20;;;;;;6308665;22;20010;-91
2022/09/16 00:39:41;;;;;;;;;;;19.00;90.10;;;;;;6308173;22;19938;-90
2022/09/16 00:42:10;;;;;;;;;;;19.10;90.60;;;;;;6308751;22;19932;-91
2022/09/16 00:44:54;;;;;;;;;;;19.20;90.40;;;;;;6308612;22;19941;-91
2022/09/16 00:47:25;;;;;;;;;;;19.10;90.00;;;;;;6308615;22;20399;-91
2022/09/16 00:49:51;;;;;;;;;;;19.10;89.80;;;;;;6308273;22;19964;-91
2022/09/16 00:52:17;;;;;;;;;;;19.00;89.90;;;;;;6308458;22;19957;-91
2022/09/16 00:54:43;;;;;;;;;;;18.80;89.50;;;;;;6341292;22;20005;-91
2022/09/16 00:57:10;;;;;;;;;;;18.80;89.90;;;;;;6371400;22;20362;-91
2022/09/16 00:59:37;;;;;;;;;;;18.80;90.10;;;;;;6371450;22;19936;-91
2022/09/16 01:02:09;;;;;;;;;;;18.90;90.10;;;;;;6371637;22;19945;-91
2022/09/16 01:04:37;;;;;;;;;;;19.00;90.00;;;;;;6370980;22;19932;-91
2022/09/16 01:07:02;;;;;;;;;;;19.00;89.50;;;;;;6371204;22;20013;-91
2022/09/16 01:09:28;;;;;;;;;;;19.10;89.10;;;;;;6370659;22;19980;-91
2022/09/16 01:11:54;;;;;;;;;;;19.10;88.80;;;;;;6343265;22;20364;-91
2022/09/16 01:17:14;;;;;;;;;;;18.90;88.60;;;;;;6371093;22;19942;-91
2022/09/16 01:19:42;;;;;;;;;;;18.80;88.00;;;;;;6370671;22;19936;-92
2022/09/16 01:22:10;;;;;;;;;;;18.80;88.80;;;;;;6370949;22;19972;-91
2022/09/16 01:24:47;;;;;;;;;;;18.80;88.80;;;;;;6370615;22;20352;-91
2022/09/16 01:27:20;;;;;;;;;;;18.80;88.90;;;;;;6370839;22;19934;-90
2022/09/16 01:29:57;;;;;;;;;;;18.80;88.90;;;;;;6370575;22;19959;-91
2022/09/16 01:32:28;;;;;;;;;;;18.70;89.10;;;;;;6370768;22;19973;-91
2022/09/16 01:35:19;;;;;;;;;;;18.70;89.30;;;;;;6370990;22;19959;-92
2022/09/16 01:38:03;;;;;;;;;;;18.70;89.40;;;;;;6342807;22;20331;-91
2022/09/16 01:40:45;;;;;;;;;;;18.70;89.50;;;;;;6371098;22;19995;-91
2022/09/16 01:43:17;;;;;;;;;;;18.70;89.30;;;;;;6370592;22;19958;-92
2022/09/16 01:45:45;;;;;;;;;;;18.70;89.20;;;;;;6370877;22;19936;-91
2022/09/16 01:48:16;;;;;;;;;;;18.70;89.50;;;;;;6370492;22;20029;-91
2022/09/16 01:50:45;;;;;;;;;;;18.70;89.70;;;;;;6365694;22;19953;-90
2022/09/16 01:53:29;;;;;;;;;;;18.80;90.10;;;;;;6338831;22;19938;-91
2022/09/16 01:56:09;;;;;;;;;;;18.80;90.50;;;;;;6339344;22;19941;-91
2022/09/16 01:58:41;;;;;;;;;;;18.80;90.80;;;;;;6339368;22;19942;-90
2022/09/16 02:01:12;;;;;;;;;;;18.70;89.20;;;;;;6338796;22;19935;-91
2022/09/16 02:03:39;;;;;;;;;;;18.40;88.40;;;;;;6339293;22;20004;-90
2022/09/16 02:06:07;;;;;;;;;;;18.10;88.70;;;;;;6339105;22;19934;-91
2022/09/16 02:08:37;;;;;;;;;;;18.10;89.50;;;;;;6338667;22;19983;-91
2022/09/16 02:11:05;;;;;;;;;;;18.10;90.10;;;;;;6338929;22;20314;-91
2022/09/16 02:13:50;;;;;;;;;;;18.20;90.50;;;;;;6339067;22;20346;-91
2022/09/16 02:16:19;;;;;;;;;;;18.30;90.80;;;;;;6339033;22;19942;-91
2022/09/16 02:18:49;;;;;;;;;;;18.30;90.90;;;;;;6339112;22;19932;-91
2022/09/16 02:21:15;;;;;;;;;;;18.40;90.80;;;;;;6338840;22;20274;-90
2022/09/16 02:23:49;;;;;;;;;;;18.40;90.90;;;;;;6311062;22;20005;-91
2022/09/16 02:26:18;;;;;;;;;;;18.50;90.70;;;;;;6338974;22;19959;-91
2022/09/16 02:28:45;;;;;;;;;;;18.60;90.60;;;;;;6339097;22;19949;-91
2022/09/16 02:31:11;;;;;;;;;;;18.60;90.10;;;;;;6338972;22;19939;-91
2022/09/16 02:34:06;;;;;;;;;;;18.60;89.80;;;;;;6339049;22;20010;-91
2022/09/16 02:36:33;;;;;;;;;;;18.60;89.60;;;;;;6305879;22;20346;-91
2022/09/16 02:39:01;;;;;;;;;;;18.50;89.00;;;;;;6338770;22;19932;-91
2022/09/16 02:41:27;;;;;;;;;;;18.30;89.00;;;;;;6339520;22;20006;-90
2022/09/16 02:43:53;;;;;;;;;;;18.30;90.10;;;;;;6341306;22;20399;-91
2022/09/16 02:46:19;;;;;;;;;;;18.30;91.40;;;;;;6341070;22;19980;-91
2022/09/16 02:49:04;;;;;;;;;;;18.30;92.00;;;;;;6340674;22;20298;-91
2022/09/16 02:51:32;;;;;;;;;;;18.40;92.30;;;;;;6340424;22;19956;-91
2022/09/16 02:54:10;;;;;;;;;;;18.40;92.30;;;;;;6340325;22;19975;-91
2022/09/16 02:56:38;;;;;;;;;;;18.50;92.40;;;;;;6340808;22;19934;-91
2022/09/16 02:59:04;;;;;;;;;;;18.50;92.20;;;;;;6340757;22;20363;-91
2022/09/16 03:01:32;;;;;;;;;;;18.50;92.10;;;;;;6340470;22;19958;-91
2022/09/16 03:03:58;;;;;;;;;;;18.50;91.70;;;;;;6313257;22;20323;-90
2022/09/16 03:06:24;;;;;;;;;;;18.50;91.50;;;;;;6340612;22;19933;-91
2022/09/16 03:08:51;;;;;;;;;;;18.40;91.20;;;;;;6340442;22;19963;-91
2022/09/16 03:11:28;;;;;;;;;;;18.40;91.00;;;;;;6340447;22;19941;-91
2022/09/16 03:14:06;;;;;;;;;;;18.40;90.80;;;;;;6340522;22;19964;-91
2022/09/16 03:16:46;;;;;;;;;;;18.40;90.70;;;;;;6340841;22;19937;-91
2022/09/16 03:19:30;;;;;;;;;;;18.40;90.60;;;;;;6340635;22;19938;-91
2022/09/16 03:21:59;;;;;;;;;;;18.30;90.10;;;;;;6340337;22;19933;-91
2022/09/16 03:24:33;;;;;;;;;;;18.10;89.50;;;;;;6340411;22;19942;-91
2022/09/16 03:27:11;;;;;;;;;;;17.90;89.70;;;;;;6340355;22;19933;-91
2022/09/16 03:30:02;;;;;;;;;;;17.90;89.80;;;;;;6340258;22;19962;-91
2022/09/16 03:32:42;;;;;;;;;;;18.10;90.20;;;;;;6332685;22;19972;-91
2022/09/16 03:35:12;;;;;;;;;;;18.20;90.30;;;;;;6340290;22;19931;-91
2022/09/16 03:37:38;;;;;;;;;;;18.30;90.40;;;;;;6340292;22;19930;-91
2022/09/16 03:40:08;;;;;;;;;;;18.30;90.60;;;;;;6340016;22;20373;-91
2022/09/16 03:42:34;;;;;;;;;;;18.30;90.30;;;;;;6339995;22;19933;-91
2022/09/16 03:44:59;;;;;;;;;;;18.30;90.20;;;;;;6340164;22;20490;-91
2022/09/16 03:47:25;;;;;;;;;;;18.30;90.40;;;;;;6340250;22;19959;-91
2022/09/16 03:49:51;;;;;;;;;;;18.30;90.60;;;;;;6312408;22;20002;-91
2022/09/16 03:52:18;;;;;;;;;;;18.40;90.70;;;;;;6339934;22;19987;-91
2022/09/16 03:54:44;;;;;;;;;;;18.60;90.80;;;;;;6339365;22;20384;-91
2022/09/16 03:57:09;;;;;;;;;;;18.50;90.00;;;;;;6340077;22;19932;-91
2022/09/16 03:59:35;;;;;;;;;;;18.50;90.30;;;;;;6312319;22;20402;-90
2022/09/16 04:02:00;;;;;;;;;;;18.60;90.10;;;;;;6339721;22;19934;-91
2022/09/16 04:04:26;;;;;;;;;;;18.70;90.00;;;;;;6340108;22;20001;-91
2022/09/16 04:06:51;;;;;;;;;;;18.70;90.00;;;;;;6340109;22;19934;-91
2022/09/16 04:09:17;;;;;;;;;;;18.80;89.90;;;;;;6339785;22;19957;-90
2022/09/16 04:11:42;;;;;;;;;;;19.10;88.70;;;;;;6339798;22;20372;-90
2022/09/16 04:14:08;;;;;;;;;;;19.30;87.90;;;;;;6339988;22;20406;-91
2022/09/16 04:16:34;;;;;;;;;;;19.40;87.00;;;;;;6339948;22;20314;-91
2022/09/16 04:18:59;;;;;;;;;;;19.50;86.60;;;;;;6339947;22;19949;-91
2022/09/16 04:21:25;;;;;;;;;;;19.50;86.30;;;;;;6339907;22;19944;-91
2022/09/16 04:23:51;;;;;;;;;;;19.60;86.00;;;;;;6339190;22;20370;-91
2022/09/16 04:26:16;;;;;;;;;;;19.60;87.10;;;;;;6339424;22;20008;-91
2022/09/16 04:28:42;;;;;;;;;;;19.50;87.50;;;;;;6339546;22;20059;-91
2022/09/16 04:31:11;;;;;;;;;;;19.60;88.10;;;;;;6339692;22;20015;-91
2022/09/16 04:33:37;;;;;;;;;;;19.50;88.40;;;;;;6339978;22;19937;-91
2022/09/16 04:36:03;;;;;;;;;;;19.60;88.30;;;;;;6339764;22;20328;-91
2022/09/16 04:38:28;;;;;;;;;;;19.50;88.30;;;;;;6339719;22;19930;-91
2022/09/16 04:40:58;;;;;;;;;;;19.50;88.50;;;;;;6339540;22;19930;-91
2022/09/16 04:43:24;;;;;;;;;;;19.50;88.40;;;;;;6339664;22;19930;-91
2022/09/16 04:45:50;;;;;;;;;;;19.50;88.00;;;;;;6339569;22;19972;-91
2022/09/16 04:48:16;;;;;;;;;;;19.50;88.50;;;;;;6339602;22;19985;-91
2022/09/16 04:50:42;;;;;;;;;;;19.60;88.40;;;;;;6339181;22;19983;-91
2022/09/16 04:53:08;;;;;;;;;;;19.60;88.40;;;;;;6339597;22;19937;-90
2022/09/16 04:55:34;;;;;;;;;;;19.60;88.20;;;;;;6338828;22;19979;-91
2022/09/16 04:58:00;;;;;;;;;;;19.50;87.80;;;;;;6339664;22;19939;-91
2022/09/16 05:00:25;;;;;;;;;;;19.60;88.10;;;;;;6339705;22;19932;-91
2022/09/16 05:02:53;;;;;;;;;;;19.50;88.30;;;;;;6338808;22;19957;-91
2022/09/16 05:05:19;;;;;;;;;;;19.60;87.90;;;;;;6338171;22;20351;-90
2022/09/16 05:07:45;;;;;;;;;;;19.60;88.10;;;;;;6339372;22;19941;-90
2022/09/16 05:10:10;;;;;;;;;;;19.50;88.70;;;;;;6339160;22;20012;-91
2022/09/16 05:12:37;;;;;;;;;;;19.50;88.80;;;;;;6337947;22;19933;-91
2022/09/16 05:15:02;;;;;;;;;;;19.60;88.70;;;;;;6338676;22;19942;-91
2022/09/16 05:17:28;;;;;;;;;;;19.70;88.50;;;;;;6339303;22;20274;-91
2022/09/16 05:19:54;;;;;;;;;;;19.80;88.10;;;;;;6339044;22;19938;-91
2022/09/16 05:22:19;;;;;;;;;;;19.80;87.90;;;;;;6338778;22;19935;-91
2022/09/16 05:24:45;;;;;;;;;;;20.00;87.50;;;;;;6338202;22;20015;-91
2022/09/16 05:27:11;;;;;;;;;;;20.00;87.00;;;;;;6338674;22;19934;-91
2022/09/16 05:29:36;;;;;;;;;;;20.10;85.90;;;;;;6337512;22;19962;-91
2022/09/16 05:32:02;;;;;;;;;;;20.30;85.40;;;;;;6338150;22;19935;-90
2022/09/16 05:34:27;;;;;;;;;;;20.40;85.20;;;;;;6337067;22;20394;-91
2022/09/16 05:36:54;;;;;;;;;;;20.50;85.00;;;;;;6336964;22;19939;-90
2022/09/16 05:39:20;;;;;;;;;;;20.50;84.80;;;;;;6335901;22;19938;-90
2022/09/16 05:41:46;;;;;;;;;;;20.60;84.80;;;;;;6337055;22;19929;-91
2022/09/16 05:44:12;;;;;;;;;;;20.60;84.60;;;;;;6338300;22;19966;-91
2022/09/16 05:46:39;;;;;;;;;;;20.70;84.60;;;;;;6336323;22;19961;-91
2022/09/16 05:49:05;;;;;;;;;;;20.70;84.80;;;;;;6310630;22;19991;-91
2022/09/16 05:51:31;;;;;;;;;;;20.70;84.50;;;;;;6338383;22;19999;-90
2022/09/16 05:53:57;;;;;;;;;;;20.80;84.20;;;;;;6330990;22;20403;-91
2022/09/16 05:56:24;;;;;;;;;;;20.80;83.90;;;;;;6337405;22;19934;-91
2022/09/16 05:58:51;;;;;;;;;;;20.90;83.70;;;;;;6337454;22;19944;-91
2022/09/16 06:01:18;;;;;;;;;;;20.90;83.60;;;;;;6336842;22;19949;-91
2022/09/16 06:03:44;;;;;;;;;;;21.00;83.60;;;;;;6337248;22;20359;-91
2022/09/16 06:06:16;;;;;;;;;;;21.10;83.50;;;;;;6337998;22;19943;-91
2022/09/16 06:08:41;;;;;;;;;;;21.20;82.70;;;;;;6337628;22;19957;-91
2022/09/16 06:11:09;;;;;;;;;;;21.30;82.00;;;;;;6338119;22;20022;-91
2022/09/16 06:13:35;;;;;;;;;;;21.30;82.10;;;;;;6336897;22;19931;-91
2022/09/16 06:16:02;;;;;;;;;;;21.40;82.20;;;;;;6337626;22;19938;-91
2022/09/16 06:18:28;;;;;;;;;;;21.50;82.10;;;;;;6337968;22;19941;-91
2022/09/16 06:20:54;;;;;;;;;;;21.50;81.70;;;;;;6338376;22;20011;-91
2022/09/16 06:23:20;;;;;;;;;;;21.50;81.00;;;;;;6338212;22;19933;-90
2022/09/16 06:25:45;;;;;;;;;;;21.50;80.20;;;;;;6339177;22;19942;-91
2022/09/16 06:28:11;;;;;;;;;;;21.50;80.70;;;;;;6337962;22;20469;-91
2022/09/16 06:30:37;;;;;;;;;;;21.50;80.60;;;;;;6338128;22;20005;-91
2022/09/16 06:33:03;;;;;;;;;;;21.60;80.60;;;;;;6310756;22;19938;-91
2022/09/16 06:35:28;;;;;;;;;;;21.60;80.20;;;;;;6338002;22;19935;-91
2022/09/16 06:37:54;;;;;;;;;;;21.70;79.90;;;;;;6337984;22;20348;-91
2022/09/16 06:40:20;;;;;;;;;;;21.70;80.10;;;;;;6338878;22;19937;-91
2022/09/16 06:42:45;;;;;;;;;;;21.70;79.90;;;;;;6337971;22;19939;-91
2022/09/16 06:45:11;;;;;;;;;;;21.80;80.00;;;;;;6310716;22;19934;-91
2022/09/16 06:47:36;;;;;;;;;;;21.80;79.80;;;;;;6338339;22;19935;-91
2022/09/16 06:50:03;;;;;;;;;;;21.80;79.50;;;;;;6337529;22;19955;-91
2022/09/16 06:52:29;;;;;;;;;;;21.80;79.50;;;;;;6338518;22;19970;-91
2022/09/16 06:54:54;;;;;;;;;;;21.80;79.00;;;;;;6338068;22;20051;-91
2022/09/16 06:57:22;;;;;;;;;;;21.90;78.70;;;;;;6338558;22;20000;-91
2022/09/16 06:59:48;;;;;;;;;;;22.00;78.00;;;;;;6337994;22;19944;-91
2022/09/16 07:02:13;;;;;;;;;;;22.20;77.60;;;;;;6338473;22;19931;-91
2022/09/16 07:04:39;;;;;;;;;;;22.30;76.70;;;;;;6338209;22;19928;-91
2022/09/16 07:07:05;;;;;;;;;;;22.30;76.00;;;;;;6338217;22;19936;-91
2022/09/16 07:09:31;;;;;;;;;;;22.40;75.80;;;;;;6337522;22;20387;-91
2022/09/16 07:11:58;;;;;;;;;;;22.40;75.50;;;;;;6337322;22;19943;-91
2022/09/16 07:14:24;;;;;;;;;;;22.50;75.70;;;;;;6337398;22;19936;-91
2022/09/16 07:16:50;;;;;;;;;;;22.50;75.80;;;;;;6337925;22;19938;-91
2022/09/16 07:19:15;;;;;;;;;;;22.50;75.70;;;;;;6337869;22;19940;-91
2022/09/16 07:21:41;;;;;;;;;;;22.50;75.80;;;;;;6328923;22;20100;-91
2022/09/16 07:24:07;;;;;;;;;;;22.50;75.90;;;;;;6338177;22;19990;-91
2022/09/16 07:26:34;;;;;;;;;;;22.50;75.80;;;;;;6337757;22;19932;-91
2022/09/16 07:29:01;;;;;;;;;;;22.50;75.90;;;;;;6336587;22;19970;-91
2022/09/16 07:31:28;;;;;;;;;;;22.60;76.00;;;;;;6338075;22;20127;-91
2022/09/16 07:33:55;;;;;;;;;;;22.70;75.70;;;;;;6339087;22;19933;-91
2022/09/16 07:36:22;;;;;;;;;;;22.80;75.50;;;;;;6338905;22;19941;-91
2022/09/16 07:38:48;;;;;;;;;;;22.80;75.30;;;;;;6339302;22;19945;-91
2022/09/16 07:41:13;;;;;;;;;;;22.80;75.60;;;;;;6339573;22;20068;-91
2022/09/16 07:43:40;;;;;;;;;;;22.80;75.60;;;;;;6337846;22;20016;-91
2022/09/16 07:46:06;;;;;;;;;;;22.90;75.60;;;;;;6338082;22;20365;-91
2022/09/16 07:48:32;;;;;;;;;;;22.90;75.20;;;;;;6311042;22;19959;-91
2022/09/16 07:50:59;;;;;;;;;;;23.10;75.00;;;;;;6337585;22;20007;-91
2022/09/16 07:53:26;;;;;;;;;;;23.20;74.70;;;;;;6338858;22;19946;-91
2022/09/16 07:55:53;;;;;;;;;;;23.30;73.50;;;;;;6337660;22;19969;-91
2022/09/16 07:58:18;;;;;;;;;;;23.40;73.60;;;;;;6338656;22;19943;-91
2022/09/16 08:00:45;;;;;;;;;;;23.50;73.10;;;;;;6285408;22;20441;-91
2022/09/16 08:03:10;;;;;;;;;;;23.60;72.30;;;;;;6338809;22;19936;-90
2022/09/16 08:05:36;;;;;;;;;;;23.80;71.90;;;;;;6339407;22;20015;-91
2022/09/16 08:08:01;;;;;;;;;;;23.90;71.30;;;;;;6338978;22;20339;-91
2022/09/16 08:10:27;;;;;;;;;;;24.00;70.50;;;;;;6339022;22;20003;-91
2022/09/16 08:12:52;;;;;;;;;;;24.00;70.50;;;;;;6338424;22;19973;-91
2022/09/16 08:15:18;;;;;;;;;;;24.10;70.10;;;;;;6338544;22;19938;-91
2022/09/16 08:17:44;;;;;;;;;;;24.20;70.20;;;;;;6339444;22;19968;-91
2022/09/16 08:20:09;;;;;;;;;;;24.30;69.80;;;;;;6338717;22;20254;-91
2022/09/16 08:22:35;;;;;;;;;;;24.30;69.80;;;;;;6339389;22;20441;-91
2022/09/16 08:25:00;;;;;;;;;;;24.40;69.00;;;;;;6338690;22;20358;-91
2022/09/16 08:27:26;;;;;;;;;;;24.40;69.00;;;;;;6339277;22;20009;-91
2022/09/16 08:29:52;;;;;;;;;;;24.50;69.00;;;;;;6337782;22;19989;-91
2022/09/16 08:32:17;;;;;;;;;;;24.40;68.20;;;;;;6339006;22;20015;-91
2022/09/16 08:34:43;;;;;;;;;;;24.60;69.20;;;;;;6338130;22;19960;-91
2022/09/16 08:37:09;;;;;;;;;;;24.70;69.20;;;;;;6337809;22;19956;-91
2022/09/16 08:39:34;;;;;;;;;;;24.80;68.30;;;;;;6338947;22;20391;-92
2022/09/16 08:42:20;;;;;;;;;;;24.80;67.70;;;;;;6338694;22;19930;-91
2022/09/16 08:44:56;;;;;;;;;;;24.90;67.20;;;;;;6259661;22;20174;-91
2022/09/16 08:47:22;;;;;;;;;;;25.00;67.10;;;;;;6337855;22;20337;-91
2022/09/16 08:49:50;;;;;;;;;;;25.20;66.90;;;;;;6338337;22;19959;-91
2022/09/16 08:52:38;;;;;;;;;;;25.30;66.30;;;;;;6337974;22;19972;-91
2022/09/16 08:55:15;;;;;;;;;;;25.40;65.50;;;;;;6336161;22;19974;-91
2022/09/16 08:58:05;;;;;;;;;;;25.50;67.50;;;;;;6337338;22;20032;-91
2022/09/16 09:00:30;;;;;;;;;;;25.60;66.60;;;;;;6314941;22;20028;-92
2022/09/16 09:02:57;;;;;;;;;;;25.70;66.50;;;;;;6338039;22;19945;-93
2022/09/16 09:05:41;;;;;;;;;;;25.80;65.70;;;;;;6338079;22;20719;-92
2022/09/16 09:08:06;;;;;;;;;;;25.80;66.30;;;;;;6338602;22;19955;-91
2022/09/16 09:10:32;;;;;;;;;;;25.90;65.10;;;;;;6338087;22;20293;-92
2022/09/16 09:13:06;;;;;;;;;;;25.80;64.00;;;;;;6338085;22;20325;-92
2022/09/16 09:15:35;;;;;;;;;;;25.90;63.80;;;;;;6337899;22;19944;-92
2022/09/16 09:18:12;;;;;;;;;;;25.90;63.80;;;;;;6338292;22;20322;-92
2022/09/16 09:20:44;;;;;;;;;;;26.00;63.40;;;;;;6338468;22;19935;-92
2022/09/16 09:23:09;;;;;;;;;;;26.00;63.50;;;;;;6338882;22;19931;-91
2022/09/16 09:25:41;;;;;;;;;;;25.90;62.30;;;;;;6338118;22;19990;-91
2022/09/16 09:28:22;;;;;;;;;;;25.90;63.20;;;;;;6337767;22;19945;-92
2022/09/16 09:31:06;;;;;;;;;;;25.90;64.10;;;;;;6338050;22;19962;-92
2022/09/16 09:33:40;;;;;;;;;;;26.00;62.80;;;;;;6337861;22;19939;-91
2022/09/16 09:36:20;;;;;;;;;;;26.00;62.70;;;;;;6338294;22;19932;-92
2022/09/16 09:38:46;;;;;;;;;;;26.10;63.00;;;;;;6338059;22;19942;-91
2022/09/16 09:41:26;;;;;;;;;;;26.20;65.80;;;;;;6338069;22;20001;-91
2022/09/16 09:43:52;;;;;;;;;;;26.30;63.50;;;;;;6337126;22;19984;-91
2022/09/16 09:46:22;;;;;;;;;;;26.40;64.50;;;;;;6334824;22;19986;-91
2022/09/16 09:49:10;;;;;;;;;;;26.50;66.90;;;;;;6337938;22;19960;-92
2022/09/16 09:51:43;;;;;;;;;;;26.40;62.70;;;;;;6315893;22;19950;-92
2022/09/16 09:54:28;;;;;;;;;;;26.40;62.80;;;;;;6302923;22;20270;-91
2022/09/16 09:56:58;;;;;;;;;;;26.40;63.30;;;;;;6304044;22;19930;-91
2022/09/16 09:59:26;;;;;;;;;;;26.40;63.30;;;;;;6304960;22;19936;-91
2022/09/16 10:01:53;;;;;;;;;;;26.40;63.00;;;;;;6305077;22;19938;-91
2022/09/16 10:04:18;;;;;;;;;;;26.40;62.80;;;;;;6304685;22;19946;-92
2022/09/16 10:06:44;;;;;;;;;;;26.40;62.50;;;;;;6306014;22;19969;-91
2022/09/16 10:09:14;;;;;;;;;;;26.30;62.80;;;;;;6306434;22;19953;-91
2022/09/16 10:11:47;;;;;;;;;;;26.40;62.60;;;;;;6306538;22;19938;-91
2022/09/16 10:14:28;;;;;;;;;;;26.40;62.60;;;;;;6307601;22;19988;-91
2022/09/16 10:16:54;;;;;;;;;;;26.40;61.00;;;;;;6306999;22;19933;-91
2022/09/16 10:19:24;;;;;;;;;;;26.50;62.30;;;;;;6306118;22;19977;-91
2022/09/16 10:21:54;;;;;;;;;;;26.60;61.80;;;;;;6307020;22;19930;-91
2022/09/16 10:24:28;;;;;;;;;;;26.70;61.10;;;;;;6307277;22;19936;-91
2022/09/16 10:26:55;;;;;;;;;;;26.70;62.50;;;;;;6307433;22;19999;-91
2022/09/16 10:29:20;;;;;;;;;;;26.80;61.50;;;;;;6307735;22;19961;-92
2022/09/16 10:31:46;;;;;;;;;;;26.80;61.00;;;;;;6307304;22;20358;-91
2022/09/16 10:34:15;;;;;;;;;;;26.90;60.70;;;;;;6307251;22;20017;-91
2022/09/16 10:36:40;;;;;;;;;;;27.00;61.00;;;;;;6306981;22;19933;-92
2022/09/16 10:39:19;;;;;;;;;;;27.10;60.50;;;;;;6307509;22;19946;-91
2022/09/16 10:41:45;;;;;;;;;;;27.20;61.10;;;;;;6307654;22;19985;-91
2022/09/16 10:44:16;;;;;;;;;;;27.30;60.40;;;;;;6307596;22;19930;-91
2022/09/16 10:46:51;;;;;;;;;;;27.30;60.10;;;;;;6305572;22;19934;-91
2022/09/16 10:49:19;;;;;;;;;;;27.40;60.60;;;;;;6307018;22;19952;-91
2022/09/16 10:51:44;;;;;;;;;;;27.50;59.70;;;;;;6307178;22;20354;-91
2022/09/16 10:54:21;;;;;;;;;;;27.60;58.70;;;;;;6316116;22;19988;-91
2022/09/16 10:56:48;;;;;;;;;;;27.70;58.80;;;;;;6338362;22;19929;-92
2022/09/16 10:59:14;;;;;;;;;;;27.70;59.30;;;;;;6338651;22;19936;-91
2022/09/16 11:01:52;;;;;;;;;;;27.90;58.50;;;;;;6338373;22;19933;-91
2022/09/16 11:04:20;;;;;;;;;;;28.10;58.40;;;;;;6312148;22;19953;-91
2022/09/16 11:06:46;;;;;;;;;;;28.30;58.20;;;;;;6339823;22;19941;-92
2022/09/16 11:09:20;;;;;;;;;;;28.50;57.30;;;;;;6340897;22;19984;-91
2022/09/16 11:12:01;;;;;;;;;;;28.70;55.50;;;;;;6340562;22;20018;-91
2022/09/16 11:14:47;;;;;;;;;;;28.70;55.70;;;;;;6340297;22;19946;-91
2022/09/16 11:17:16;;;;;;;;;;;28.80;55.70;;;;;;6339539;22;20015;-91
2022/09/16 11:19:41;;;;;;;;;;;28.80;55.70;;;;;;6339773;22;20005;-91
2022/09/16 11:22:30;;;;;;;;;;;28.90;55.50;;;;;;6339574;22;19941;-91
2022/09/16 11:24:56;;;;;;;;;;;29.00;54.40;;;;;;6340348;22;19937;-92
2022/09/16 11:27:40;;;;;;;;;;;29.10;54.90;;;;;;6337861;22;20017;-91
2022/09/16 11:30:24;;;;;;;;;;;29.10;53.70;;;;;;6338649;22;19938;-92
2022/09/16 11:32:57;;;;;;;;;;;29.30;55.50;;;;;;6336216;22;19963;-92
2022/09/16 11:35:46;;;;;;;;;;;29.70;56.00;;;;;;6337986;22;19937;-92
2022/09/16 11:38:15;;;;;;;;;;;29.90;53.90;;;;;;6316617;22;19969;-92
2022/09/16 11:40:47;;;;;;;;;;;29.90;53.90;;;;;;6338883;22;19939;-92
2022/09/16 11:43:36;;;;;;;;;;;30.20;52.90;;;;;;6339371;22;19932;-92
2022/09/16 11:46:17;;;;;;;;;;;30.40;51.40;;;;;;6338948;22;19930;-92
2022/09/16 11:48:43;;;;;;;;;;;30.40;50.80;;;;;;6338379;22;20402;-92
2022/09/16 11:51:11;;;;;;;;;;;30.40;51.80;;;;;;6338915;22;19949;-92
2022/09/16 11:53:46;;;;;;;;;;;30.50;51.70;;;;;;6338601;22;20023;-92
2022/09/16 11:56:11;;;;;;;;;;;30.70;51.10;;;;;;6339559;22;19950;-92
2022/09/16 11:58:44;;;;;;;;;;;31.00;49.30;;;;;;6339358;22;19984;-93
2022/09/16 12:01:28;;;;;;;;;;;31.20;50.00;;;;;;6338447;22;19956;-92
2022/09/16 12:03:59;;;;;;;;;;;31.60;48.60;;;;;;6338347;22;19929;-92
2022/09/16 12:06:28;;;;;;;;;;;32.00;46.50;;;;;;6338577;22;19937;-92
2022/09/16 12:09:01;;;;;;;;;;;31.90;47.20;;;;;;6338612;22;20041;-92
2022/09/16 12:11:44;;;;;;;;;;;31.70;48.20;;;;;;6336495;22;19929;-92
2022/09/16 12:14:21;;;;;;;;;;;31.20;50.30;;;;;;6338603;22;19941;-91
2022/09/16 12:16:53;;;;;;;;;;;30.70;51.10;;;;;;6338270;22;20394;-92
2022/09/16 12:19:23;;;;;;;;;;;30.80;50.90;;;;;;6339163;22;19953;-92
2022/09/16 12:21:55;;;;;;;;;;;31.20;50.20;;;;;;6310961;22;20022;-92
2022/09/16 12:24:30;;;;;;;;;;;32.00;47.80;;;;;;6339150;22;20345;-92
2022/09/16 12:27:01;;;;;;;;;;;32.60;48.20;;;;;;6338092;22;20387;-92
2022/09/16 12:29:32;;;;;;;;;;;33.20;46.10;;;;;;6338105;22;19963;-92
2022/09/16 12:32:05;;;;;;;;;;;34.40;42.60;;;;;;6310359;22;20361;-92
2022/09/16 12:34:33;;;;;;;;;;;35.40;40.90;;;;;;6337206;22;19931;-92
2022/09/16 12:37:19;;;;;;;;;;;36.50;38.90;;;;;;6336723;22;19938;-92
2022/09/16 12:39:47;;;;;;;;;;;37.60;35.90;;;;;;6259448;22;20429;-92
2022/09/16 12:42:13;;;;;;;;;;;37.50;36.00;;;;;;6337389;22;19943;-92
2022/09/16 12:44:48;;;;;;;;;;;36.20;37.90;;;;;;6337438;22;19992;-92
2022/09/16 12:47:13;;;;;;;;;;;35.10;40.50;;;;;;6337651;22;20012;-92
2022/09/16 12:49:39;;;;;;;;;;;34.70;42.50;;;;;;6338953;22;19993;-92
2022/09/16 12:52:20;;;;;;;;;;;34.30;42.40;;;;;;6337647;22;20009;-92
2022/09/16 12:55:01;;;;;;;;;;;33.70;42.80;;;;;;6336833;22;19973;-92
2022/09/16 12:58:02;;;;;;;;;;;32.90;44.90;;;;;;6338434;22;19967;-92
2022/09/16 13:00:37;;;;;;;;;;;32.20;46.20;;;;;;6182905;23;19944;-92
2022/09/16 13:03:09;;;;;;;;;;;32.70;46.00;;;;;;6315271;22;19948;-92
2022/09/16 13:05:35;;;;;;;;;;;32.80;45.70;;;;;;6336667;22;19939;-92
2022/09/16 13:08:03;;;;;;;;;;;32.60;45.80;;;;;;6337076;22;19936;-92
2022/09/16 13:10:28;;;;;;;;;;;31.70;48.30;;;;;;6337839;22;20319;-92
2022/09/16 13:12:55;;;;;;;;;;;30.70;50.40;;;;;;6338237;22;19925;-92
2022/09/16 13:15:32;;;;;;;;;;;30.30;51.50;;;;;;6338431;22;19961;-92
2022/09/16 13:18:13;;;;;;;;;;;29.80;52.60;;;;;;6337865;22;19937;-92
2022/09/16 13:20:40;;;;;;;;;;;29.30;54.30;;;;;;6338317;22;19937;-92
2022/09/16 13:23:14;;;;;;;;;;;28.90;55.50;;;;;;6338418;22;19926;-92
2022/09/16 13:25:57;;;;;;;;;;;28.60;55.80;;;;;;6338157;22;20300;-92
2022/09/16 13:28:24;;;;;;;;;;;28.30;56.30;;;;;;6338520;22;19949;-92
2022/09/16 13:30:49;;;;;;;;;;;28.20;57.00;;;;;;6336273;22;20359;-92
2022/09/16 13:33:18;;;;;;;;;;;27.90;57.70;;;;;;6337551;22;20267;-92
2022/09/16 13:35:48;;;;;;;;;;;27.80;58.50;;;;;;6338464;22;20346;-92
2022/09/16 13:38:13;;;;;;;;;;;27.60;58.80;;;;;;6337481;22;19934;-92
2022/09/16 13:40:39;;;;;;;;;;;27.50;59.00;;;;;;6337056;22;19935;-92
2022/09/16 13:43:08;;;;;;;;;;;27.40;59.60;;;;;;6338439;22;19974;-92
2022/09/16 13:45:33;;;;;;;;;;;27.30;61.00;;;;;;6338619;22;20365;-92
2022/09/16 13:48:25;;;;;;;;;;;27.20;61.70;;;;;;6337521;22;19999;-92
2022/09/16 13:50:59;;;;;;;;;;;27.20;61.10;;;;;;6330129;22;19964;-92
2022/09/16 13:53:30;;;;;;;;;;;27.20;60.80;;;;;;6336168;22;20194;-92
2022/09/16 13:56:00;;;;;;;;;;;27.10;60.90;;;;;;6337439;22;19961;-93
2022/09/16 13:58:33;;;;;;;;;;;27.20;61.00;;;;;;6337238;22;19948;-92
2022/09/16 14:01:15;;;;;;;;;;;27.20;60.70;;;;;;6338183;22;20358;-92
2022/09/16 14:03:45;;;;;;;;;;;27.90;59.60;;;;;;6337178;22;19955;-92
2022/09/16 14:06:23;;;;;;;;;;;28.60;57.30;;;;;;6337200;22;19928;-92
2022/09/16 14:08:49;;;;;;;;;;;29.50;55.80;;;;;;6337501;22;19962;-92
2022/09/16 14:11:37;;;;;;;;;;;30.50;53.00;;;;;;6337969;22;20064;-92
2022/09/16 14:14:12;;;;;;;;;;;31.70;50.80;;;;;;6314286;22;20024;-92
2022/09/16 14:16:39;;;;;;;;;;;32.50;47.70;;;;;;6337707;22;20013;-92
2022/09/16 14:19:06;;;;;;;;;;;32.20;48.50;;;;;;6336345;22;19931;-92
2022/09/16 14:21:32;;;;;;;;;;;31.80;49.10;;;;;;6336913;22;20023;-92
2022/09/16 14:24:30;;;;;;;;;;;31.10;50.20;;;;;;6337970;22;19982;-92
2022/09/16 14:26:56;;;;;;;;;;;30.70;51.00;;;;;;6251695;22;19938;-92
2022/09/16 14:29:22;;;;;;;;;;;30.40;52.00;;;;;;6338088;22;19981;-92
2022/09/16 14:31:50;;;;;;;;;;;30.20;52.70;;;;;;6310687;22;20381;-92
2022/09/16 14:34:17;;;;;;;;;;;30.30;52.00;;;;;;6337340;22;20469;-92